sensor_id;sensor_type;location;lat;lon;timestamp;pressure;altitude;pressure_sealevel;temperature;humidity
16431;BME280;8325;49.284;7.238;2023-01-31T05:03:25;99829.00;;;1.22;100.00
16431;BME280;8325;49.284;7.238;2023-01-31T05:07:38;99829.19;;;1.19;100.00
16431;BME280;8325;49.284;7.238;2023-01-31T05:11:50;99826.69;;;1.18;100.00
16431;BME280;8325;49.284;7.238;2023-01-31T05:16:01;99833.00;;;1.12;100.00
16431;BME280;8325;49.284;7.238;2023-01-31T05:20:13;99831.50;;;1.08;100.00
16431;BME280;8325;49.284;7.238;2023-01-31T05:24:32;99826.19;;;1.11;100.00
16431;BME280;8325;49.284;7.238;2023-01-31T05:28:43;99826.38;;;1.08;100.00
16431;BME280;8325;49.284;7.238;2023-01-31T05:32:55;99832.66;;;1.02;100.00
16431;BME280;8325;49.284;7.238;2023-01-31T05:37:06;99826.00;;;0.98;100.00
16431;BME280;8325;49.284;7.238;2023-01-31T05:41:18;99832.84;;;0.99;100.00
16431;BME280;8325;49.284;7.238;2023-01-31T05:45:30;99839.88;;;0.96;100.00
16431;BME280;8325;49.284;7.238;2023-01-31T05:49:41;99856.88;;;0.98;100.00
16431;BME280;8325;49.284;7.238;2023-01-31T05:53:53;99861.38;;;1.10;100.00
16431;BME280;8325;49.284;7.238;2023-01-31T05:58:05;99850.75;;;1.01;100.00
16431;BME280;8325;49.284;7.238;2023-01-31T06:02:16;99850.59;;;1.04;100.00
16431;BME280;8325;49.284;7.238;2023-01-31T06:06:28;99854.91;;;1.03;100.00
16431;BME280;8325;49.284;7.238;2023-01-31T06:10:39;99854.25;;;1.00;100.00
16431;BME280;8325;49.284;7.238;2023-01-31T06:14:51;99864.53;;;1.00;100.00
16431;BME280;8325;49.284;7.238;2023-01-31T06:19:02;99854.91;;;1.03;100.00
16431;BME280;8325;49.284;7.238;2023-01-31T06:23:14;99851.50;;;1.03;100.00
16431;BME280;8325;49.284;7.238;2023-01-31T06:27:25;99839.56;;;1.18;100.00
16431;BME280;8325;49.284;7.238;2023-01-31T06:31:37;99836.41;;;1.12;100.00
16431;BME280;8325;49.284;7.238;2023-01-31T06:35:49;99827.69;;;1.15;100.00
16431;BME280;8325;49.284;7.238;2023-01-31T06:40:00;99839.13;;;1.09;100.00
16431;BME280;8325;49.284;7.238;2023-01-31T06:44:12;99849.59;;;1.06;100.00
16431;BME280;8325;49.284;7.238;2023-01-31T06:48:23;99862.28;;;1.09;100.00
16431;BME280;8325;49.284;7.238;2023-01-31T06:52:35;99854.41;;;1.12;100.00
16431;BME280;8325;49.284;7.238;2023-01-31T06:56:47;99844.72;;;1.18;100.00
16431;BME280;8325;49.284;7.238;2023-01-31T07:01:09;99843.78;;;1.19;100.00
16431;BME280;8325;49.284;7.238;2023-01-31T07:05:22;99850.53;;;1.21;100.00
16431;BME280;8325;49.284;7.238;2023-01-31T07:09:33;99844.56;;;1.21;100.00
16431;BME280;8325;49.284;7.238;2023-01-31T07:13:45;99841.81;;;1.24;100.00
16431;BME280;8325;49.284;7.238;2023-01-31T07:17:58;99842.13;;;1.18;100.00
16431;BME280;8325;49.284;7.238;2023-01-31T07:22:10;99853.09;;;1.21;100.00
16431;BME280;8325;49.284;7.238;2023-01-31T07:26:21;99851.34;;;1.22;100.00
16431;BME280;8325;49.284;7.238;2023-01-31T07:30:33;99852.28;;;1.21;100.00
16431;BME280;8325;49.284;7.238;2023-01-31T07:34:44;99851.94;;;1.27;100.00
16431;BME280;8325;49.284;7.238;2023-01-31T07:38:56;99848.59;;;1.25;100.00
16431;BME280;8325;49.284;7.238;2023-01-31T07:43:08;99838.41;;;1.39;100.00
16431;BME280;8325;49.284;7.238;2023-01-31T07:47:19;99831.16;;;1.46;100.00
16431;BME280;8325;49.284;7.238;2023-01-31T07:51:31;99826.66;;;1.49;100.00
16431;BME280;8325;49.284;7.238;2023-01-31T07:55:43;99835.16;;;1.51;100.00
16431;BME280;8325;49.284;7.238;2023-01-31T07:59:58;99840.78;;;1.58;100.00
16431;BME280;8325;49.284;7.238;2023-01-31T08:04:12;99847.59;;;1.59;100.00
16431;BME280;8325;49.284;7.238;2023-01-31T08:08:32;99849.91;;;1.64;100.00
16431;BME280;8325;49.284;7.238;2023-01-31T08:12:44;99856.56;;;1.68;100.00
16431;BME280;8325;49.284;7.238;2023-01-31T08:16:59;99848.47;;;1.74;100.00
16431;BME280;8325;49.284;7.238;2023-01-31T08:21:16;99837.06;;;1.78;100.00
16431;BME280;8325;49.284;7.238;2023-01-31T08:25:31;99843.56;;;1.85;100.00
16431;BME280;8325;49.284;7.238;2023-01-31T08:29:43;99847.69;;;1.88;100.00
16431;BME280;8325;49.284;7.238;2023-01-31T08:33:55;99860.66;;;1.86;100.00
16431;BME280;8325;49.284;7.238;2023-01-31T08:38:07;99865.66;;;1.89;100.00
16431;BME280;8325;49.284;7.238;2023-01-31T08:42:27;99871.63;;;1.90;100.00
16431;BME280;8325;49.284;7.238;2023-01-31T08:46:38;99878.94;;;1.97;100.00
16431;BME280;8325;49.284;7.238;2023-01-31T08:50:50;99879.59;;;2.01;100.00
16431;BME280;8325;49.284;7.238;2023-01-31T08:55:01;99880.41;;;2.01;100.00
16431;BME280;8325;49.284;7.238;2023-01-31T08:59:13;99866.59;;;2.02;100.00
16431;BME280;8325;49.284;7.238;2023-01-31T09:03:25;99855.41;;;2.03;100.00
16431;BME280;8325;49.284;7.238;2023-01-31T09:07:36;99848.56;;;2.02;100.00
16431;BME280;8325;49.284;7.238;2023-01-31T09:11:48;99849.16;;;2.07;100.00
16431;BME280;8325;49.284;7.238;2023-01-31T09:16:04;99859.53;;;2.06;100.00
16431;BME280;8325;49.284;7.238;2023-01-31T09:20:18;99854.19;;;2.09;100.00
16431;BME280;8325;49.284;7.238;2023-01-31T09:24:29;99859.09;;;2.14;100.00
16431;BME280;8325;49.284;7.238;2023-01-31T09:28:42;99868.88;;;2.23;100.00
16431;BME280;8325;49.284;7.238;2023-01-31T09:32:54;99854.06;;;2.26;100.00
16431;BME280;8325;49.284;7.238;2023-01-31T09:37:07;99861.31;;;2.20;100.00
16431;BME280;8325;49.284;7.238;2023-01-31T09:41:37;99852.59;;;2.22;100.00
16431;BME280;8325;49.284;7.238;2023-01-31T09:45:55;99860.31;;;2.22;100.00
16431;BME280;8325;49.284;7.238;2023-01-31T09:50:21;99863.19;;;2.32;100.00
16431;BME280;8325;49.284;7.238;2023-01-31T09:54:37;99858.44;;;2.40;100.00
16431;BME280;8325;49.284;7.238;2023-01-31T09:59:20;99870.56;;;2.38;100.00
16431;BME280;8325;49.284;7.238;2023-01-31T10:12:40;99866.19;;;2.69;100.00
16431;BME280;8325;49.284;7.238;2023-01-31T10:17:28;99862.41;;;2.60;100.00
16431;BME280;8325;49.284;7.238;2023-01-31T10:21:53;99853.53;;;2.64;100.00
16431;BME280;8325;49.284;7.238;2023-01-31T10:26:15;99847.75;;;2.61;100.00
16431;BME280;8325;49.284;7.238;2023-01-31T10:30:43;99847.56;;;2.64;100.00
16431;BME280;8325;49.284;7.238;2023-01-31T10:34:59;99845.44;;;2.70;100.00
16431;BME280;8325;49.284;7.238;2023-01-31T10:39:28;99837.31;;;2.76;100.00
16431;BME280;8325;49.284;7.238;2023-01-31T10:43:52;99821.38;;;2.84;100.00
16431;BME280;8325;49.284;7.238;2023-01-31T10:48:22;99812.53;;;2.88;100.00
16431;BME280;8325;49.284;7.238;2023-01-31T10:57:16;99796.66;;;3.09;100.00
16431;BME280;8325;49.284;7.238;2023-01-31T11:01:28;99785.19;;;3.13;100.00
16431;BME280;8325;49.284;7.238;2023-01-31T11:05:46;99779.84;;;3.16;100.00
16431;BME280;8325;49.284;7.238;2023-01-31T11:09:59;99781.22;;;3.21;100.00
16431;BME280;8325;49.284;7.238;2023-01-31T11:14:30;99757.47;;;3.29;100.00
16431;BME280;8325;49.284;7.238;2023-01-31T11:18:45;99749.59;;;3.18;100.00
16431;BME280;8325;49.284;7.238;2023-01-31T11:23:00;99764.31;;;3.30;100.00
16431;BME280;8325;49.284;7.238;2023-01-31T11:27:30;99740.31;;;3.28;100.00
16431;BME280;8325;49.284;7.238;2023-01-31T11:31:43;99735.97;;;3.29;100.00
16431;BME280;8325;49.284;7.238;2023-01-31T11:35:57;99747.34;;;3.26;100.00
16431;BME280;8325;49.284;7.238;2023-01-31T11:44:29;99746.81;;;3.21;100.00
16431;BME280;8325;49.284;7.238;2023-01-31T11:48:42;99757.03;;;3.22;100.00
16431;BME280;8325;49.284;7.238;2023-01-31T11:53:03;99739.06;;;3.21;100.00
16431;BME280;8325;49.284;7.238;2023-01-31T11:57:25;99736.69;;;3.18;100.00
16431;BME280;8325;49.284;7.238;2023-01-31T12:01:45;99737.59;;;3.17;100.00
16431;BME280;8325;49.284;7.238;2023-01-31T12:06:03;99727.06;;;3.20;100.00
16431;BME280;8325;49.284;7.238;2023-01-31T12:10:26;99715.09;;;3.19;100.00
16431;BME280;8325;49.284;7.238;2023-01-31T12:14:40;99697.22;;;3.16;100.00
16431;BME280;8325;49.284;7.238;2023-01-31T12:23:28;99671.72;;;3.11;100.00
16431;BME280;8325;49.284;7.238;2023-01-31T12:28:34;99658.91;;;3.22;100.00
16431;BME280;8325;49.284;7.238;2023-01-31T12:32:44;99646.41;;;3.29;100.00
16431;BME280;8325;49.284;7.238;2023-01-31T12:37:20;99635.19;;;3.43;100.00
16431;BME280;8325;49.284;7.238;2023-01-31T12:41:42;99626.72;;;3.54;100.00
16431;BME280;8325;49.284;7.238;2023-01-31T12:46:24;99614.13;;;3.49;100.00
16431;BME280;8325;49.284;7.238;2023-01-31T12:50:51;99616.38;;;3.54;100.00
16431;BME280;8325;49.284;7.238;2023-01-31T13:00:02;99624.78;;;3.57;100.00
16431;BME280;8325;49.284;7.238;2023-01-31T13:13:37;99622.50;;;3.53;100.00
16431;BME280;8325;49.284;7.238;2023-01-31T13:17:56;99600.78;;;3.55;100.00
16431;BME280;8325;49.284;7.238;2023-01-31T13:22:22;99600.78;;;3.55;100.00
16431;BME280;8325;49.284;7.238;2023-01-31T13:26:43;99604.19;;;3.56;100.00
16431;BME280;8325;49.284;7.238;2023-01-31T13:30:57;99601.72;;;3.54;100.00
16431;BME280;8325;49.284;7.238;2023-01-31T13:39:42;99576.28;;;3.74;100.00
16431;BME280;8325;49.284;7.238;2023-01-31T13:43:57;99552.41;;;3.70;100.00
16431;BME280;8325;49.284;7.238;2023-01-31T13:48:19;99532.44;;;3.72;100.00
16431;BME280;8325;49.284;7.238;2023-01-31T13:52:35;99528.22;;;3.71;100.00
16431;BME280;8325;49.284;7.238;2023-01-31T13:56:56;99547.53;;;3.78;100.00
16431;BME280;8325;49.284;7.238;2023-01-31T14:01:17;99549.41;;;3.76;100.00
16431;BME280;8325;49.284;7.238;2023-01-31T14:27:45;99595.91;;;3.89;100.00
16431;BME280;8325;49.284;7.238;2023-01-31T14:37:07;99572.53;;;3.90;100.00
16431;BME280;8325;49.284;7.238;2023-01-31T14:50:33;99569.44;;;3.98;100.00
16431;BME280;8325;49.284;7.238;2023-01-31T14:54:56;99577.28;;;3.97;100.00
16431;BME280;8325;49.284;7.238;2023-01-31T14:59:31;99583.59;;;3.92;100.00
16431;BME280;8325;49.284;7.238;2023-01-31T15:03:55;99595.91;;;3.89;100.00
16431;BME280;8325;49.284;7.238;2023-01-31T15:12:55;99596.72;;;3.89;100.00
16431;BME280;8325;49.284;7.238;2023-01-31T15:17:17;99614.63;;;3.92;100.00
16431;BME280;8325;49.284;7.238;2023-01-31T15:21:48;99616.59;;;3.89;100.00
16431;BME280;8325;49.284;7.238;2023-01-31T15:26:03;99627.66;;;3.91;100.00
16431;BME280;8325;49.284;7.238;2023-01-31T15:30:18;99624.22;;;3.90;100.00
16431;BME280;8325;49.284;7.238;2023-01-31T15:34:32;99613.69;;;3.81;100.00
16431;BME280;8325;49.284;7.238;2023-01-31T15:38:56;99611.66;;;3.73;100.00
16431;BME280;8325;49.284;7.238;2023-01-31T15:43:34;99602.00;;;3.75;100.00
16431;BME280;8325;49.284;7.238;2023-01-31T15:47:58;99606.47;;;3.73;100.00
16431;BME280;8325;49.284;7.238;2023-01-31T15:52:13;99614.94;;;3.75;100.00
16431;BME280;8325;49.284;7.238;2023-01-31T15:56:25;99614.72;;;3.78;100.00
16431;BME280;8325;49.284;7.238;2023-01-31T16:00:37;99619.41;;;3.73;100.00
16431;BME280;8325;49.284;7.238;2023-01-31T16:05:18;99627.75;;;3.77;100.00
16431;BME280;8325;49.284;7.238;2023-01-31T16:10:39;99628.06;;;3.72;100.00
16431;BME280;8325;49.284;7.238;2023-01-31T16:14:51;99628.78;;;3.74;100.00
16431;BME280;8325;49.284;7.238;2023-01-31T16:19:27;99629.00;;;3.71;100.00
16431;BME280;8325;49.284;7.238;2023-01-31T16:23:39;99627.56;;;3.80;100.00
16431;BME280;8325;49.284;7.238;2023-01-31T16:27:51;99622.81;;;3.74;100.00
16431;BME280;8325;49.284;7.238;2023-01-31T16:32:03;99620.50;;;3.69;100.00
16431;BME280;8325;49.284;7.238;2023-01-31T16:40:35;99603.06;;;3.73;100.00
16431;BME280;8325;49.284;7.238;2023-01-31T16:44:48;99613.50;;;3.71;100.00
16431;BME280;8325;49.284;7.238;2023-01-31T16:49:03;99615.34;;;3.69;100.00
16431;BME280;8325;49.284;7.238;2023-01-31T16:53:30;99621.97;;;3.73;100.00
16431;BME280;8325;49.284;7.238;2023-01-31T16:57:42;99616.69;;;3.75;100.00
16431;BME280;8325;49.284;7.238;2023-01-31T17:02:00;99611.66;;;3.73;100.00
16431;BME280;8325;49.284;7.238;2023-01-31T17:06:20;99619.59;;;3.70;100.00
16431;BME280;8325;49.284;7.238;2023-01-31T17:10:33;99625.06;;;3.78;100.00
16431;BME280;8325;49.284;7.238;2023-01-31T17:14:45;99615.56;;;3.79;100.00
16431;BME280;8325;49.284;7.238;2023-01-31T17:18:57;99625.78;;;3.80;100.00
16431;BME280;8325;49.284;7.238;2023-01-31T17:23:10;99624.03;;;3.81;100.00
16431;BME280;8325;49.284;7.238;2023-01-31T17:27:22;99608.53;;;3.81;100.00
16431;BME280;8325;49.284;7.238;2023-01-31T17:31:34;99606.16;;;3.78;100.00
16431;BME280;8325;49.284;7.238;2023-01-31T17:35:45;99609.13;;;3.84;100.00
16431;BME280;8325;49.284;7.238;2023-01-31T17:39:57;99602.03;;;3.88;100.00
16431;BME280;8325;49.284;7.238;2023-01-31T17:44:12;99610.81;;;3.85;100.00
16431;BME280;8325;49.284;7.238;2023-01-31T17:48:24;99617.63;;;3.86;100.00
16431;BME280;8325;49.284;7.238;2023-01-31T17:52:37;99613.19;;;3.88;100.00
16431;BME280;8325;49.284;7.238;2023-01-31T17:56:48;99614.09;;;3.87;100.00
16431;BME280;8325;49.284;7.238;2023-01-31T18:01:02;99622.25;;;3.81;100.00
16431;BME280;8325;49.284;7.238;2023-01-31T18:05:15;99635.19;;;3.81;100.00
16431;BME280;8325;49.284;7.238;2023-01-31T18:09:34;99628.16;;;3.83;100.00
16431;BME280;8325;49.284;7.238;2023-01-31T18:13:46;99614.31;;;3.84;100.00
16431;BME280;8325;49.284;7.238;2023-01-31T18:17:58;99607.91;;;3.90;100.00
16431;BME280;8325;49.284;7.238;2023-01-31T18:22:09;99608.94;;;3.87;100.00
16431;BME280;8325;49.284;7.238;2023-01-31T18:26:23;99608.31;;;3.84;100.00
16431;BME280;8325;49.284;7.238;2023-01-31T18:30:34;99609.13;;;3.84;100.00
16431;BME280;8325;49.284;7.238;2023-01-31T18:34:46;99608.53;;;3.81;100.00
16431;BME280;8325;49.284;7.238;2023-01-31T18:38:57;99617.00;;;3.83;100.00
16431;BME280;8325;49.284;7.238;2023-01-31T18:43:09;99612.88;;;3.80;100.00
16431;BME280;8325;49.284;7.238;2023-01-31T18:47:20;99617.41;;;3.89;100.00
16431;BME280;8325;49.284;7.238;2023-01-31T18:51:32;99607.69;;;3.93;100.00
16431;BME280;8325;49.284;7.238;2023-01-31T18:55:43;99612.84;;;3.93;100.00
16431;BME280;8325;49.284;7.238;2023-01-31T18:59:55;99609.13;;;3.97;100.00
16431;BME280;8325;49.284;7.238;2023-01-31T19:04:06;99611.59;;;3.99;100.00
16431;BME280;8325;49.284;7.238;2023-01-31T19:08:18;99616.56;;;4.02;100.00
16431;BME280;8325;49.284;7.238;2023-01-31T19:12:29;99617.00;;;3.96;100.00
16431;BME280;8325;49.284;7.238;2023-01-31T19:16:43;99621.22;;;3.97;100.00
16431;BME280;8325;49.284;7.238;2023-01-31T19:20:55;99620.59;;;3.93;100.00
16431;BME280;8325;49.284;7.238;2023-01-31T19:25:06;99625.69;;;3.95;100.00
16431;BME280;8325;49.284;7.238;2023-01-31T19:29:20;99617.94;;;3.95;100.00
16431;BME280;8325;49.284;7.238;2023-01-31T19:33:32;99615.84;;;4.00;100.00
16431;BME280;8325;49.284;7.238;2023-01-31T19:37:44;99614.50;;;3.94;100.00
16431;BME280;8325;49.284;7.238;2023-01-31T19:41:56;99615.13;;;3.98;100.00
16431;BME280;8325;49.284;7.238;2023-01-31T19:46:08;99610.25;;;4.06;100.00
16431;BME280;8325;49.284;7.238;2023-01-31T19:50:20;99612.63;;;3.96;100.00
16431;BME280;8325;49.284;7.238;2023-01-31T19:54:31;99609.84;;;3.99;100.00
16431;BME280;8325;49.284;7.238;2023-01-31T19:58:42;99601.34;;;3.97;100.00
16431;BME280;8325;49.284;7.238;2023-01-31T20:02:54;99596.91;;;3.99;100.00
16431;BME280;8325;49.284;7.238;2023-01-31T20:07:05;99610.66;;;4.00;100.00
16431;BME280;8325;49.284;7.238;2023-01-31T20:11:17;99611.28;;;4.03;100.00
16431;BME280;8325;49.284;7.238;2023-01-31T20:15:29;99608.69;;;4.03;100.00
16431;BME280;8325;49.284;7.238;2023-01-31T20:19:41;99609.94;;;4.10;100.00
16431;BME280;8325;49.284;7.238;2023-01-31T20:23:55;99601.44;;;4.08;100.00
16431;BME280;8325;49.284;7.238;2023-01-31T20:28:06;99596.19;;;4.10;100.00
16431;BME280;8325;49.284;7.238;2023-01-31T20:32:18;99603.00;;;4.11;100.00
16431;BME280;8325;49.284;7.238;2023-01-31T20:36:29;99583.25;;;4.10;100.00
16431;BME280;8325;49.284;7.238;2023-01-31T20:40:47;99568.19;;;4.04;100.00
16431;BME280;8325;49.284;7.238;2023-01-31T20:44:59;99575.94;;;4.04;100.00
16431;BME280;8325;49.284;7.238;2023-01-31T20:49:11;99568.66;;;4.09;100.00
16431;BME280;8325;49.284;7.238;2023-01-31T20:53:22;99576.31;;;4.10;100.00
16431;BME280;8325;49.284;7.238;2023-01-31T20:57:34;99583.88;;;4.13;100.00
16431;BME280;8325;49.284;7.238;2023-01-31T21:01:46;99582.41;;;4.09;100.00
16431;BME280;8325;49.284;7.238;2023-01-31T21:05:58;99597.50;;;4.15;100.00
16431;BME280;8325;49.284;7.238;2023-01-31T21:10:11;99598.34;;;4.16;100.00
16431;BME280;8325;49.284;7.238;2023-01-31T21:14:22;99604.34;;;4.17;100.00
16431;BME280;8325;49.284;7.238;2023-01-31T21:18:36;99604.22;;;4.18;100.00
16431;BME280;8325;49.284;7.238;2023-01-31T21:22:48;99602.78;;;4.14;100.00
16431;BME280;8325;49.284;7.238;2023-01-31T21:26:59;99595.41;;;4.21;100.00
16431;BME280;8325;49.284;7.238;2023-01-31T21:31:12;99586.94;;;4.19;100.00
16431;BME280;8325;49.284;7.238;2023-01-31T21:35:27;99589.03;;;4.13;100.00
16431;BME280;8325;49.284;7.238;2023-01-31T21:39:39;99586.25;;;4.17;100.00
16431;BME280;8325;49.284;7.238;2023-01-31T21:43:51;99584.97;;;4.22;100.00
16431;BME280;8325;49.284;7.238;2023-01-31T21:48:02;99567.91;;;4.20;100.00
16431;BME280;8325;49.284;7.238;2023-01-31T21:52:32;99575.34;;;4.24;100.00
16431;BME280;8325;49.284;7.238;2023-01-31T21:56:44;99571.09;;;4.23;100.00
16431;BME280;8325;49.284;7.238;2023-01-31T22:05:17;99568.63;;;4.22;100.00
16431;BME280;8325;49.284;7.238;2023-01-31T22:09:28;99567.34;;;4.27;100.00
16431;BME280;8325;49.284;7.238;2023-01-31T22:13:44;99558.91;;;4.25;100.00
16431;BME280;8325;49.284;7.238;2023-01-31T22:17:56;99565.22;;;4.21;100.00
16431;BME280;8325;49.284;7.238;2023-01-31T22:22:08;99560.75;;;4.23;100.00
16431;BME280;8325;49.284;7.238;2023-01-31T22:26:25;99560.53;;;4.26;100.00
